Latest Weather Observations for Ocean Reef

IDW60901

Issued at 5:21 am WST Tuesday 4 August 2020 (issued every 10 minutes, with the page automatically refreshed every 10 minutes)

About weather observations | Map of Perth area stations | Latest observations for Perth area | Other Formats
Station Details ID: 009214 Name: OCEAN REEF Lat: -31.76 Lon: 115.73 Height: 10.0 m
Data from the previous 72 hours. | See also: Recent months at Ocean Reef
Date/Time
WST
Temp
°C
App
Temp
°C
Dew
Point
°C
Rel
Hum
%
Delta-T
°C
Wind Press
QNH
hPa
Press
MSL
hPa
Rain since
9am
mm
Dir  Spd
km/h
Gust
km/h
Spd
kts
Gust
kts
04/05:00am - - - - - SSE 11 15 6 8 - - -
04/04:30am - - - - - SE 15 19 8 10 - - -
04/04:00am - - - - - SE 15 17 8 9 - - -
04/03:30am - - - - - SE 17 20 9 11 - - -
04/03:00am - - - - - SE 17 22 9 12 - - -
04/02:30am - - - - - SE 15 19 8 10 - - -
04/02:00am - - - - - SE 13 17 7 9 - - -
04/01:30am - - - - - SSE 15 20 8 11 - - -
04/01:00am - - - - - SSE 15 20 8 11 - - -
04/12:30am - - - - - SSE 15 17 8 9 - - -
04/12:00am - - - - - SE 13 13 7 7 - - -
 
Date/Time
WST
Temp
°C
App
Temp
°C
Dew
Point
°C
Rel
Hum
%
Delta-T
°C
Wind Press
QNH
hPa
Press
MSL
hPa
Rain since
9am
mm
Dir  Spd
km/h
Gust
km/h
Spd
kts
Gust
kts
03/11:30pm - - - - - SE 13 15 7 8 - - -
03/11:00pm - - - - - SE 13 17 7 9 - - -
03/10:30pm - - - - - SE 13 17 7 9 - - -
03/10:00pm - - - - - SE 11 13 6 7 - - -
03/09:30pm - - - - - SE 13 15 7 8 - - -
03/09:00pm - - - - - SE 13 13 7 7 - - -
03/08:30pm - - - - - SE 13 15 7 8 - - -
03/08:00pm - - - - - E 2 7 1 4 - - -
03/07:30pm - - - - - E 11 15 6 8 - - -
03/07:00pm - - - - - NE 17 24 9 13 - - -
03/06:30pm - - - - - NE 19 30 10 16 - - -
03/06:00pm - - - - - NE 26 33 14 18 - - -
03/05:30pm - - - - - ENE 19 26 10 14 - - -
03/05:00pm - - - - - E 17 22 9 12 - - -
03/04:30pm - - - - - ESE 15 19 8 10 - - -
03/04:00pm - - - - - ENE 15 24 8 13 - - -
03/03:30pm - - - - - ENE 11 19 6 10 - - -
03/03:00pm - - - - - NNE 17 26 9 14 - - -
03/02:30pm - - - - - ENE 17 24 9 13 - - -
03/02:00pm - - - - - NE 20 32 11 17 - - -
03/01:30pm - - - - - NE 17 26 9 14 - - -
03/01:00pm - - - - - NE 15 26 8 14 - - -
03/12:30pm - - - - - NE 17 26 9 14 - - -
03/12:00pm - - - - - ENE 17 24 9 13 - - -
03/11:30am - - - - - ENE 13 19 7 10 - - -
03/11:00am - - - - - ESE 15 20 8 11 - - -
03/10:30am - - - - - SE 17 28 9 15 - - -
03/10:00am - - - - - SSW 24 37 13 20 - - -
03/09:30am - - - - - SSW 20 33 11 18 - - -
03/09:28am - - - - - SW 20 33 11 18 - - -
03/09:00am - - - - - N 6 9 3 5 - - -
03/08:30am - - - - - E 7 11 4 6 - - -
03/08:00am - - - - - SE 11 15 6 8 - - -
03/07:30am - - - - - SSW 26 32 14 17 - - -
03/07:00am - - - - - SW 26 32 14 17 - - -
03/06:30am - - - - - WSW 30 39 16 21 - - -
03/06:00am - - - - - W 35 43 19 23 - - -
03/05:30am - - - - - W 30 41 16 22 - - -
03/05:00am - - - - - WSW 32 39 17 21 - - -
03/04:30am - - - - - W 28 35 15 19 - - -
03/04:00am - - - - - N 20 32 11 17 - - -
03/03:30am - - - - - NNE 20 30 11 16 - - -
03/03:00am - - - - - NE 13 19 7 10 - - -
03/02:30am - - - - - NE 17 20 9 11 - - -
03/02:00am - - - - - NE 13 17 7 9 - - -
03/01:30am - - - - - E 13 17 7 9 - - -
03/01:00am - - - - - ESE 17 24 9 13 - - -
03/12:30am - - - - - SE 19 30 10 16 - - -
03/12:00am - - - - - SSE 32 50 17 27 - - -
 
Date/Time
WST
Temp
°C
App
Temp
°C
Dew
Point
°C
Rel
Hum
%
Delta-T
°C
Wind Press
QNH
hPa
Press
MSL
hPa
Rain since
9am
mm
Dir  Spd
km/h
Gust
km/h
Spd
kts
Gust
kts
02/11:30pm - - - - - S 32 52 17 28 - - -
02/11:00pm - - - - - S 35 56 19 30 - - -
02/10:57pm - - - - - S 28 56 15 30 - - -
02/10:30pm - - - - - SSE 26 35 14 19 - - -
02/10:00pm - - - - - SSE 37 50 20 27 - - -
02/09:52pm - - - - - SSE 28 50 15 27 - - -
02/09:30pm - - - - - S 20 41 11 22 - - -
02/09:00pm - - - - - WSW 15 24 8 13 - - -
02/08:49pm - - - - - WSW 32 39 17 21 - - -
02/08:32pm - - - - - W 30 43 16 23 - - -
02/08:30pm - - - - - WNW 26 39 14 21 - - -
02/08:00pm - - - - - WSW 24 32 13 17 - - -
02/07:30pm - - - - - WSW 26 30 14 16 - - -
02/07:00pm - - - - - WSW 20 30 11 16 - - -
02/06:30pm - - - - - WSW 20 26 11 14 - - -
02/06:00pm - - - - - WSW 24 30 13 16 - - -
02/05:30pm - - - - - NNW 7 24 4 13 - - -
02/05:00pm - - - - - NW 17 26 9 14 - - -
02/04:30pm - - - - - NW 17 24 9 13 - - -
02/04:00pm - - - - - WNW 15 19 8 10 - - -
02/03:30pm - - - - - WNW 15 19 8 10 - - -
02/03:00pm - - - - - WNW 17 19 9 10 - - -
02/02:30pm - - - - - W 13 15 7 8 - - -
02/02:00pm - - - - - W 13 17 7 9 - - -
02/01:30pm - - - - - W 9 9 5 5 - - -
02/01:00pm - - - - - SW 11 13 6 7 - - -
02/12:30pm - - - - - SSW 11 13 6 7 - - -
02/12:00pm - - - - - SSW 13 15 7 8 - - -
02/11:30am - - - - - SSW 11 15 6 8 - - -
02/11:00am - - - - - SW 7 9 4 5 - - -
02/10:30am - - - - - E 7 11 4 6 - - -
02/10:00am - - - - - NE 6 9 3 5 - - -
02/09:30am - - - - - ENE 13 19 7 10 - - -
02/09:00am - - - - - ENE 17 20 9 11 - - -
02/08:30am - - - - - ENE 15 19 8 10 - - -
02/08:00am - - - - - ENE 17 20 9 11 - - -
02/07:30am - - - - - ENE 17 22 9 12 - - -
02/07:00am - - - - - ENE 19 20 10 11 - - -
02/06:30am - - - - - ENE 19 22 10 12 - - -
02/06:00am - - - - - ENE 17 20 9 11 - - -
02/05:30am - - - - - ENE 17 19 9 10 - - -
02/05:00am - - - - - ENE 17 19 9 10 - - -
02/04:30am - - - - - ENE 17 19 9 10 - - -
02/04:00am - - - - - E 17 19 9 10 - - -
02/03:30am - - - - - E 15 17 8 9 - - -
02/03:00am - - - - - E 15 17 8 9 - - -
02/02:30am - - - - - E 15 17 8 9 - - -
02/02:00am - - - - - E 15 15 8 8 - - -
02/01:30am - - - - - E 13 15 7 8 - - -
02/01:00am - - - - - ESE 15 19 8 10 - - -
02/12:30am - - - - - ESE 13 17 7 9 - - -
02/12:00am - - - - - SE 13 15 7 8 - - -
 
Date/Time
WST
Temp
°C
App
Temp
°C
Dew
Point
°C
Rel
Hum
%
Delta-T
°C
Wind Press
QNH
hPa
Press
MSL
hPa
Rain since
9am
mm
Dir  Spd
km/h
Gust
km/h
Spd
kts
Gust
kts
01/11:30pm - - - - - SE 13 15 7 8 - - -
01/11:00pm - - - - - SE 13 17 7 9 - - -
01/10:30pm - - - - - SE 11 13 6 7 - - -
01/10:00pm - - - - - SE 13 13 7 7 - - -
01/09:30pm - - - - - ESE 13 17 7 9 - - -
01/09:00pm - - - - - ESE 15 19 8 10 - - -
01/08:30pm - - - - - SE 15 19 8 10 - - -
01/08:00pm - - - - - SE 15 19 8 10 - - -
01/07:30pm - - - - - SE 15 20 8 11 - - -
01/07:00pm - - - - - SSE 17 24 9 13 - - -
01/06:30pm - - - - - SSE 19 28 10 15 - - -
01/06:00pm - - - - - S 20 28 11 15 - - -
01/05:30pm - - - - - S 22 28 12 15 - - -
01/05:00pm - - - - - S 20 26 11 14 - - -
01/04:30pm - - - - - S 20 28 11 15 - - -
01/04:00pm - - - - - S 19 26 10 14 - - -
01/03:30pm - - - - - SSW 19 24 10 13 - - -
01/03:00pm - - - - - SSW 20 26 11 14 - - -
01/02:30pm - - - - - SSW 17 19 9 10 - - -
01/02:00pm - - - - - SSW 17 20 9 11 - - -
01/01:30pm - - - - - SW 15 17 8 9 - - -
01/01:00pm - - - - - SW 13 15 7 8 - - -
01/12:30pm - - - - - WSW 7 11 4 6 - - -
01/12:00pm - - - - - NE 11 15 6 8 - - -
01/11:30am - - - - - NE 11 17 6 9 - - -
01/11:00am - - - - - E 13 22 7 12 - - -
01/10:30am - - - - - ENE 15 22 8 12 - - -
01/10:00am - - - - - E 15 24 8 13 - - -
01/09:30am - - - - - E 13 19 7 10 - - -
01/09:00am - - - - - ESE 11 17 6 9 - - -
01/08:30am - - - - - SE 13 19 7 10 - - -
01/08:00am - - - - - SE 11 13 6 7 - - -
01/07:30am - - - - - ESE 15 19 8 10 - - -
01/07:00am - - - - - ESE 11 13 6 7 - - -
01/06:30am - - - - - SE 9 11 5 6 - - -
01/06:00am - - - - - ESE 11 13 6 7 - - -
01/05:30am - - - - - SE 7 11 4 6 - - -

Latest Capital City Observations: Canberra | Sydney | Melbourne | Brisbane | Adelaide | Perth | Hobart | Darwin

Other formats

Comma delimited format used in spreadsheet applications
http://www.bom.gov.au/fwo/IDW60901/IDW60901.94607.axf

JavaScript Object Notation format (JSON) in row-major order
http://www.bom.gov.au/fwo/IDW60901/IDW60901.94607.json

Data quality

Most of these data are generated automatically and are frequently updated. Quality checks on data are not normally performed. It is possible for incorrect values to appear. Refer to information at About Latest Weather Observations and please check the disclaimer before using these data.